createdAt,value
2017-09-25T00:00:17.646Z,91.60
2017-09-25T00:02:45.150Z,91.50
2017-09-25T00:05:12.692Z,91.50
2017-09-25T00:07:40.953Z,91.80
2017-09-25T00:10:09.224Z,91.90
2017-09-25T00:12:36.785Z,91.90
2017-09-25T00:15:04.281Z,91.90
2017-09-25T00:17:31.817Z,91.70
2017-09-25T00:19:59.332Z,91.60
2017-09-25T00:22:26.862Z,91.60
2017-09-25T00:24:54.364Z,91.50
2017-09-25T00:27:21.917Z,91.40
2017-09-25T00:29:49.430Z,91.30
2017-09-25T00:32:17.113Z,91.30
2017-09-25T00:34:45.385Z,91.50
2017-09-25T00:37:12.882Z,91.40
2017-09-25T00:39:40.415Z,91.40
2017-09-25T00:42:07.922Z,91.40
2017-09-25T00:44:35.468Z,91.60
2017-09-25T00:47:02.967Z,91.80
2017-09-25T00:49:30.514Z,91.90
2017-09-25T00:51:58.089Z,92.10
2017-09-25T00:54:25.651Z,92.20
2017-09-25T00:56:53.159Z,92.20
2017-09-25T00:59:28.221Z,91.90
2017-09-25T01:02:07.684Z,91.90
2017-09-25T01:04:47.040Z,91.80
2017-09-25T01:07:14.542Z,91.70
2017-09-25T01:09:42.069Z,91.60
2017-09-25T01:12:09.569Z,91.50
2017-09-25T01:14:37.105Z,91.60
2017-09-25T01:17:04.655Z,91.50
2017-09-25T01:19:33.065Z,91.60
2017-09-25T01:22:00.570Z,91.60
2017-09-25T01:24:28.086Z,91.50
2017-09-25T01:26:55.618Z,91.50
2017-09-25T01:29:25.809Z,91.50
2017-09-25T01:31:53.349Z,91.50
2017-09-25T01:34:20.856Z,91.50
2017-09-25T01:36:48.403Z,91.60
2017-09-25T01:39:15.905Z,91.60
2017-09-25T01:41:43.433Z,91.60
2017-09-25T01:44:10.930Z,92.20
2017-09-25T01:46:38.565Z,92.20
2017-09-25T01:49:06.821Z,92.10
2017-09-25T01:51:35.081Z,92.20
2017-09-25T01:54:03.373Z,92.20
2017-09-25T01:56:30.862Z,92.20
2017-09-25T01:58:58.396Z,92.30
2017-09-25T02:01:25.895Z,92.30
2017-09-25T02:03:53.417Z,92.30
2017-09-25T02:06:21.673Z,92.30
2017-09-25T02:08:49.970Z,92.30
2017-09-25T02:11:17.465Z,92.30
2017-09-25T02:13:45.094Z,92.20
2017-09-25T02:16:12.590Z,92.30
2017-09-25T02:18:40.115Z,92.30
2017-09-25T02:21:08.405Z,92.30
2017-09-25T02:23:35.905Z,92.30
2017-09-25T02:26:03.428Z,92.30
2017-09-25T02:28:30.919Z,92.30
2017-09-25T02:30:58.448Z,92.30
2017-09-25T02:33:26.710Z,92.20
2017-09-25T02:35:55.124Z,92.20
2017-09-25T02:38:22.641Z,92.20
2017-09-25T02:40:50.160Z,92.20
2017-09-25T02:43:17.680Z,92.20
2017-09-25T02:45:45.172Z,92.30
2017-09-25T02:48:12.712Z,92.30
2017-09-25T02:50:40.230Z,92.30
2017-09-25T02:53:07.762Z,92.30
2017-09-25T02:55:35.257Z,92.50
2017-09-25T02:58:02.781Z,92.70
2017-09-25T03:00:31.037Z,92.60
2017-09-25T03:02:59.530Z,92.40
2017-09-25T03:05:27.037Z,92.40
2017-09-25T03:07:55.317Z,92.30
2017-09-25T03:10:22.842Z,92.20
2017-09-25T03:12:51.097Z,92.40
2017-09-25T03:15:19.396Z,92.50
2017-09-25T03:17:46.885Z,92.50
2017-09-25T03:20:14.418Z,92.60
2017-09-25T03:22:41.921Z,92.80
2017-09-25T03:25:09.452Z,93.10
2017-09-25T03:27:36.945Z,93.30
2017-09-25T03:30:04.869Z,93.50
2017-09-25T03:32:32.361Z,93.60
2017-09-25T03:34:59.849Z,93.70
2017-09-25T03:37:27.375Z,93.60
2017-09-25T03:39:55.626Z,93.70
2017-09-25T03:42:23.926Z,93.70
2017-09-25T03:44:51.414Z,93.70
2017-09-25T03:47:18.936Z,93.60
2017-09-25T03:49:46.713Z,93.50
2017-09-25T03:52:14.262Z,93.30
2017-09-25T03:54:41.785Z,93.20
2017-09-25T03:57:09.276Z,93.00
2017-09-25T03:59:36.833Z,92.80
2017-09-25T04:02:04.325Z,92.80
2017-09-25T04:04:31.825Z,92.70
2017-09-25T04:06:59.353Z,92.70
2017-09-25T04:09:26.851Z,92.80
2017-09-25T04:11:54.373Z,92.90
2017-09-25T04:14:21.861Z,93.10
2017-09-25T04:16:50.157Z,93.60
2017-09-25T04:19:17.652Z,93.50
2017-09-25T04:21:45.176Z,93.60
2017-09-25T04:24:12.663Z,93.50
2017-09-25T04:26:40.955Z,93.10
2017-09-25T04:29:08.481Z,93.10
2017-09-25T04:31:35.973Z,92.90
2017-09-25T04:34:03.501Z,92.70
2017-09-25T04:36:30.996Z,92.70
2017-09-25T04:38:59.292Z,92.70
2017-09-25T04:41:26.784Z,92.70
2017-09-25T04:43:54.316Z,93.20
2017-09-25T04:46:21.809Z,93.00
2017-09-25T04:48:49.342Z,93.00
2017-09-25T04:51:16.848Z,93.30
2017-09-25T04:53:44.530Z,93.40
2017-09-25T04:56:12.787Z,93.30
2017-09-25T04:58:41.055Z,93.10
2017-09-25T05:01:08.606Z,93.10
2017-09-25T05:03:36.121Z,93.20
2017-09-25T05:06:03.642Z,93.00
2017-09-25T05:08:31.139Z,93.00
2017-09-25T05:10:58.661Z,93.00
2017-09-25T05:13:26.917Z,92.90
2017-09-25T05:15:54.465Z,92.90
2017-09-25T05:18:22.012Z,93.00
2017-09-25T05:20:49.692Z,93.10
2017-09-25T05:23:17.187Z,93.10
2017-09-25T05:25:44.678Z,93.10
2017-09-25T05:28:12.209Z,93.00
2017-09-25T05:30:39.729Z,92.80
2017-09-25T05:33:07.293Z,92.70
2017-09-25T05:35:34.785Z,92.70
2017-09-25T05:38:02.337Z,93.00
2017-09-25T05:40:29.837Z,92.70
2017-09-25T05:42:57.387Z,92.80
2017-09-25T05:45:24.913Z,92.80
2017-09-25T05:47:53.351Z,92.60
2017-09-25T05:50:20.837Z,92.60
2017-09-25T05:52:48.325Z,92.60
2017-09-25T05:55:15.855Z,92.60
2017-09-25T05:57:43.353Z,92.60
2017-09-25T06:00:10.881Z,92.70
2017-09-25T06:02:39.134Z,92.70
2017-09-25T06:05:06.665Z,92.70
2017-09-25T06:07:34.161Z,92.70
2017-09-25T06:10:01.697Z,92.80
2017-09-25T06:12:29.193Z,92.80
2017-09-25T06:14:56.685Z,92.90
2017-09-25T06:17:24.211Z,92.90
2017-09-25T06:19:52.464Z,93.10
2017-09-25T06:22:20.762Z,93.10
2017-09-25T06:24:49.030Z,93.20
2017-09-25T06:27:16.548Z,93.20
2017-09-25T06:29:44.057Z,93.30
2017-09-25T06:32:11.588Z,93.40
2017-09-25T06:34:39.077Z,93.50
2017-09-25T06:37:06.603Z,93.00
2017-09-25T06:39:34.865Z,93.00
2017-09-25T06:42:02.545Z,93.00
2017-09-25T06:44:30.060Z,92.90
2017-09-25T06:46:58.316Z,92.50
2017-09-25T06:49:26.614Z,92.20
2017-09-25T06:51:54.114Z,92.20
2017-09-25T06:54:21.642Z,92.50
2017-09-25T06:56:49.149Z,92.10
2017-09-25T06:59:16.676Z,91.10
2017-09-25T07:01:44.175Z,90.70
2017-09-25T07:04:12.082Z,91.10
2017-09-25T07:06:39.620Z,90.60
2017-09-25T07:09:07.120Z,90.60
2017-09-25T07:11:34.653Z,90.50
2017-09-25T07:14:02.146Z,90.20
2017-09-25T07:16:29.681Z,90.50
2017-09-25T07:18:57.967Z,90.00
2017-09-25T07:21:25.511Z,90.00
2017-09-25T07:23:53.005Z,88.90
2017-09-25T07:26:20.529Z,89.30
2017-09-25T07:28:48.021Z,90.20
2017-09-25T07:31:15.933Z,88.00
2017-09-25T07:33:43.447Z,88.40
2017-09-25T07:36:10.949Z,89.70
2017-09-25T07:38:39.243Z,87.30
2017-09-25T07:41:06.747Z,87.20
2017-09-25T07:43:34.293Z,82.40
2017-09-25T07:46:01.786Z,75.00
2017-09-25T07:48:29.308Z,64.60
2017-09-25T07:50:56.801Z,56.80
2017-09-25T07:53:24.332Z,57.80
2017-09-25T07:55:51.862Z,58.00
2017-09-25T07:58:19.542Z,59.70
2017-09-25T08:00:47.032Z,61.40
2017-09-25T08:03:25.638Z,62.20
2017-09-25T08:05:53.129Z,63.80
2017-09-25T08:08:20.632Z,64.80
2017-09-25T08:10:48.177Z,66.40
2017-09-25T08:13:15.676Z,67.10
2017-09-25T08:15:43.973Z,67.50
2017-09-25T08:18:11.465Z,67.60
2017-09-25T08:20:39.145Z,65.70
2017-09-25T08:23:07.417Z,66.50
2017-09-25T08:25:34.908Z,66.50
2017-09-25T08:28:02.437Z,67.20
2017-09-25T08:30:29.937Z,66.30
2017-09-25T08:32:58.249Z,66.60
2017-09-25T08:35:25.745Z,66.60
2017-09-25T08:37:54.045Z,65.50
2017-09-25T08:40:22.308Z,64.80
2017-09-25T08:42:49.837Z,64.80
2017-09-25T08:45:17.334Z,65.20
2017-09-25T08:47:44.856Z,65.30
2017-09-25T08:50:12.345Z,62.90
2017-09-25T08:52:40.276Z,61.60
2017-09-25T08:55:08.561Z,61.90
2017-09-25T08:57:36.071Z,61.80
2017-09-25T09:00:03.593Z,62.50
2017-09-25T09:02:31.093Z,60.60
2017-09-25T09:04:58.625Z,57.00
2017-09-25T09:07:26.881Z,53.20
2017-09-25T09:09:55.170Z,52.10
2017-09-25T09:12:22.669Z,52.10
2017-09-25T09:14:50.202Z,53.70
2017-09-25T09:17:17.697Z,52.70
2017-09-25T09:19:45.193Z,51.50
2017-09-25T09:22:12.719Z,50.30
2017-09-25T09:24:40.241Z,50.40
2017-09-25T09:27:07.774Z,48.90
2017-09-25T09:29:35.261Z,46.30
2017-09-25T09:32:02.793Z,45.20
2017-09-25T09:34:30.294Z,44.00
2017-09-25T09:36:58.586Z,43.80
2017-09-25T09:39:26.092Z,43.10
2017-09-25T09:41:54.383Z,41.70
2017-09-25T09:44:21.940Z,41.60
2017-09-25T09:46:49.785Z,39.50
2017-09-25T09:49:17.285Z,38.40
2017-09-25T09:51:45.541Z,40.30
2017-09-25T09:54:13.838Z,41.00
2017-09-25T09:56:41.329Z,41.00
2017-09-25T09:59:08.867Z,43.00
2017-09-25T10:01:36.362Z,44.20
2017-09-25T10:04:03.917Z,43.30
2017-09-25T10:06:31.420Z,43.70
2017-09-25T10:08:58.953Z,45.20
2017-09-25T10:11:26.453Z,44.70
2017-09-25T10:13:54.199Z,43.20
2017-09-25T10:16:21.692Z,41.40
2017-09-25T10:18:49.179Z,40.80
2017-09-25T10:21:16.707Z,39.10
2017-09-25T10:23:44.216Z,38.70
2017-09-25T10:26:11.737Z,38.60
2017-09-25T10:28:39.233Z,40.90
2017-09-25T10:31:07.541Z,41.50
2017-09-25T10:33:35.037Z,41.50
2017-09-25T10:36:03.323Z,40.80
2017-09-25T10:38:30.822Z,40.80
2017-09-25T10:40:58.728Z,40.40
2017-09-25T10:43:26.213Z,41.20
2017-09-25T10:45:53.696Z,41.00
2017-09-25T10:48:21.217Z,41.00
2017-09-25T10:50:49.489Z,40.70
2017-09-25T10:53:17.792Z,41.30
2017-09-25T10:55:45.281Z,41.30
2017-09-25T10:58:13.849Z,45.60
2017-09-25T11:00:41.377Z,45.00
2017-09-25T11:03:08.869Z,47.80
2017-09-25T11:05:36.406Z,50.30
2017-09-25T11:08:03.912Z,51.10
2017-09-25T11:10:31.437Z,52.20
2017-09-25T11:12:58.925Z,53.00
2017-09-25T11:15:27.210Z,54.70
2017-09-25T11:17:54.723Z,54.60
2017-09-25T11:20:23.161Z,56.20
2017-09-25T11:22:50.665Z,56.20
2017-09-25T11:25:18.149Z,57.70
2017-09-25T11:27:45.674Z,57.00
2017-09-25T11:30:13.167Z,57.40
2017-09-25T11:32:41.557Z,56.30
2017-09-25T11:35:09.044Z,56.20
2017-09-25T11:37:36.537Z,55.90
2017-09-25T11:40:04.069Z,55.70
2017-09-25T11:42:31.565Z,55.40
2017-09-25T11:44:59.087Z,55.00
2017-09-25T11:47:26.577Z,55.70
2017-09-25T11:49:54.109Z,56.50
2017-09-25T11:52:21.626Z,56.70
2017-09-25T11:54:49.144Z,56.70
2017-09-25T11:57:16.635Z,56.40
2017-09-25T11:59:44.462Z,55.70
2017-09-25T12:02:12.753Z,54.40
2017-09-25T12:04:40.228Z,54.60
2017-09-25T12:07:08.513Z,53.70
2017-09-25T12:09:36.005Z,53.70
2017-09-25T12:12:03.533Z,53.20
2017-09-25T12:14:31.017Z,53.20
2017-09-25T12:16:58.536Z,53.80
2017-09-25T12:19:26.025Z,53.60
2017-09-25T12:21:53.597Z,52.20
2017-09-25T12:24:21.093Z,51.70
2017-09-25T12:26:48.738Z,51.40
2017-09-25T12:31:50.301Z,51.20
2017-09-25T12:34:17.793Z,51.60
2017-09-25T12:36:45.294Z,52.50
2017-09-25T12:39:12.825Z,51.60
2017-09-25T12:41:40.313Z,49.40
2017-09-25T12:44:09.201Z,49.90
2017-09-25T12:46:38.915Z,49.60
2017-09-25T12:49:09.609Z,50.50
2017-09-25T12:51:37.100Z,49.90
2017-09-25T12:54:04.598Z,48.80
2017-09-25T12:56:33.089Z,48.90
2017-09-25T12:59:00.577Z,49.30
2017-09-25T13:01:28.106Z,48.60
2017-09-25T13:03:55.601Z,48.60
2017-09-25T13:06:23.239Z,49.80
2017-09-25T13:08:50.729Z,49.80
2017-09-25T13:11:18.229Z,51.20
2017-09-25T13:13:45.761Z,51.70
2017-09-25T13:16:13.275Z,52.40
2017-09-25T13:18:40.826Z,52.90
2017-09-25T13:21:08.353Z,53.20
2017-09-25T13:23:35.873Z,54.40
2017-09-25T13:26:04.134Z,54.40
2017-09-25T13:28:32.526Z,54.30
2017-09-25T13:31:00.786Z,54.50
2017-09-25T13:33:28.282Z,54.50
2017-09-25T13:35:55.804Z,54.70
2017-09-25T13:38:23.289Z,54.40
2017-09-25T13:40:51.581Z,54.90
2017-09-25T13:43:19.069Z,54.90
2017-09-25T13:45:46.973Z,55.00
2017-09-25T13:48:14.457Z,55.00
2017-09-25T13:50:41.949Z,55.20
2017-09-25T13:53:09.469Z,54.80
2017-09-25T13:55:37.733Z,55.60
2017-09-25T13:58:06.020Z,54.80
2017-09-25T14:03:07.157Z,55.00
2017-09-25T14:05:34.652Z,54.90
2017-09-25T14:08:02.184Z,55.30
2017-09-25T14:10:29.672Z,56.00
2017-09-25T14:12:57.263Z,56.20
2017-09-25T14:15:24.753Z,56.30
2017-09-25T14:17:53.049Z,56.50
2017-09-25T14:20:20.550Z,56.50
2017-09-25T14:22:48.944Z,57.00
2017-09-25T14:25:17.382Z,56.90
2017-09-25T14:27:44.876Z,57.40
2017-09-25T14:30:12.405Z,57.60
2017-09-25T14:32:39.892Z,57.70
2017-09-25T14:35:07.410Z,58.20
2017-09-25T14:37:34.898Z,58.20
2017-09-25T14:40:02.529Z,58.40
2017-09-25T14:42:30.021Z,57.70
2017-09-25T14:44:57.519Z,58.00
2017-09-25T14:47:25.044Z,58.60
2017-09-25T14:49:52.534Z,58.80
2017-09-25T14:52:20.065Z,58.50
2017-09-25T14:54:48.321Z,57.90
2017-09-25T14:57:16.613Z,57.60
2017-09-25T14:59:44.105Z,57.60
2017-09-25T15:02:12.831Z,58.00
2017-09-25T15:04:40.334Z,58.10
2017-09-25T15:07:07.829Z,58.60
2017-09-25T15:09:35.361Z,59.00
2017-09-25T15:12:02.852Z,58.90
2017-09-25T15:14:30.513Z,58.90
2017-09-25T15:16:58.782Z,59.70
2017-09-25T15:19:27.378Z,60.00
2017-09-25T15:21:54.877Z,60.00
2017-09-25T15:24:22.376Z,59.80
2017-09-25T15:26:49.915Z,59.80
2017-09-25T15:29:17.402Z,60.20
2017-09-25T15:31:44.921Z,60.00
2017-09-25T15:34:12.410Z,60.40
2017-09-25T15:36:40.717Z,60.20
2017-09-25T15:39:08.225Z,60.20
2017-09-25T15:41:36.510Z,58.80
2017-09-25T15:44:03.993Z,58.80
2017-09-25T15:46:31.621Z,59.40
2017-09-25T15:48:59.109Z,59.10
2017-09-25T15:51:27.361Z,59.50
2017-09-25T15:53:54.932Z,59.50
2017-09-25T15:56:22.439Z,59.90
2017-09-25T15:58:49.998Z,59.80
2017-09-25T16:01:18.265Z,59.80
2017-09-25T16:03:46.558Z,60.00
2017-09-25T16:06:14.062Z,60.00
2017-09-25T16:08:41.585Z,60.10
2017-09-25T16:11:09.074Z,60.60
2017-09-25T16:13:36.717Z,60.80
2017-09-25T16:16:04.210Z,60.80
2017-09-25T16:18:31.704Z,60.80
2017-09-25T16:20:59.224Z,61.10
2017-09-25T16:23:26.735Z,61.70
2017-09-25T16:25:54.261Z,62.10
2017-09-25T16:28:21.758Z,62.30
2017-09-25T16:30:49.277Z,62.70
2017-09-25T16:33:16.829Z,63.70
2017-09-25T16:35:44.359Z,64.30
2017-09-25T16:38:11.862Z,63.80
2017-09-25T16:40:39.509Z,64.30
2017-09-25T16:43:07.004Z,64.70
2017-09-25T16:45:34.492Z,64.80
2017-09-25T16:48:02.025Z,64.90
2017-09-25T16:50:30.538Z,65.40
2017-09-25T16:52:58.057Z,65.30
2017-09-25T16:55:25.546Z,65.70
2017-09-25T16:57:53.082Z,66.40
2017-09-25T17:00:20.573Z,66.60
2017-09-25T17:02:48.193Z,67.00
2017-09-25T17:05:15.707Z,67.20
2017-09-25T17:07:43.237Z,67.40
2017-09-25T17:10:10.778Z,67.80
2017-09-25T17:12:38.292Z,68.00
2017-09-25T17:15:05.869Z,67.70
2017-09-25T17:17:33.364Z,68.00
2017-09-25T17:20:01.677Z,69.40
2017-09-25T17:22:29.205Z,69.40
2017-09-25T17:24:56.775Z,70.20
2017-09-25T17:27:24.281Z,71.00
2017-09-25T17:29:52.120Z,71.20
2017-09-25T17:32:19.618Z,71.40
2017-09-25T17:34:47.791Z,71.60
2017-09-25T17:37:15.331Z,71.70
2017-09-25T17:39:42.911Z,72.20
2017-09-25T17:42:11.206Z,73.10
2017-09-25T17:44:38.717Z,73.10
2017-09-25T17:47:07.197Z,74.80
2017-09-25T17:49:34.696Z,74.10
2017-09-25T17:52:02.190Z,74.30
2017-09-25T17:54:29.713Z,74.80
2017-09-25T17:56:57.975Z,75.80
2017-09-25T17:59:26.269Z,75.90
2017-09-25T18:01:53.764Z,75.80
2017-09-25T18:04:21.305Z,76.10
2017-09-25T18:06:48.828Z,76.60
2017-09-25T18:09:16.633Z,76.70
2017-09-25T18:11:44.145Z,76.80
2017-09-25T18:14:11.642Z,76.70
2017-09-25T18:16:39.177Z,77.10
2017-09-25T18:19:06.673Z,77.00
2017-09-25T18:21:34.235Z,77.30
2017-09-25T18:24:02.505Z,77.80
2017-09-25T18:26:30.035Z,77.70
2017-09-25T18:28:57.557Z,78.00
2017-09-25T18:31:25.261Z,78.50
2017-09-25T18:33:52.752Z,78.50
2017-09-25T18:36:20.249Z,78.90
2017-09-25T18:38:47.782Z,79.30
2017-09-25T18:41:15.297Z,79.90
2017-09-25T18:43:43.587Z,80.80
2017-09-25T18:46:11.081Z,80.80
2017-09-25T18:48:38.785Z,81.10
2017-09-25T18:51:06.274Z,81.60
2017-09-25T18:53:38.493Z,82.40
2017-09-25T18:56:06.021Z,82.30
2017-09-25T18:58:33.519Z,82.60
2017-09-25T19:01:01.085Z,83.10
2017-09-25T19:03:29.350Z,84.20
2017-09-25T19:05:57.653Z,84.50
2017-09-25T19:08:25.156Z,84.50
2017-09-25T19:10:53.453Z,85.40
2017-09-25T19:13:20.981Z,85.40
2017-09-25T19:15:48.624Z,85.90
2017-09-25T19:18:16.117Z,86.30
2017-09-25T19:20:43.618Z,86.60
2017-09-25T19:23:11.145Z,86.90
2017-09-25T19:25:38.654Z,87.10
2017-09-25T19:28:06.233Z,87.10
2017-09-25T19:30:34.522Z,87.20
2017-09-25T19:33:02.061Z,87.20
2017-09-25T19:35:29.553Z,87.30
2017-09-25T19:37:57.085Z,87.50
2017-09-25T19:40:24.698Z,87.80
2017-09-25T19:42:53.451Z,88.10
2017-09-25T19:45:20.975Z,88.50
2017-09-25T19:47:59.921Z,88.80
2017-09-25T19:50:39.112Z,88.90
2017-09-25T19:53:07.465Z,89.20
2017-09-25T19:55:35.741Z,89.60
2017-09-25T19:58:08.717Z,89.80
2017-09-25T20:00:37.136Z,89.90
2017-09-25T20:03:05.318Z,89.90
2017-09-25T20:05:33.587Z,90.30
2017-09-25T20:08:01.846Z,90.10
2017-09-25T20:10:32.661Z,90.10
2017-09-25T20:13:00.929Z,90.40
2017-09-25T20:15:48.145Z,90.00
2017-09-25T20:18:15.677Z,89.80
2017-09-25T20:20:44.029Z,90.00
2017-09-25T20:23:11.549Z,90.00
2017-09-25T20:25:39.114Z,90.10
2017-09-25T20:28:06.643Z,89.80
2017-09-25T20:30:34.173Z,89.60
2017-09-25T20:33:01.693Z,90.00
2017-09-25T20:35:29.342Z,90.00
2017-09-25T20:37:56.848Z,90.10
2017-09-25T20:40:25.723Z,90.60
2017-09-25T20:43:00.017Z,90.60
2017-09-25T20:45:27.519Z,90.20
2017-09-25T20:47:55.108Z,90.20
2017-09-25T20:50:22.597Z,90.10
2017-09-25T20:52:50.181Z,90.10
2017-09-25T20:55:17.677Z,90.10
2017-09-25T20:57:45.238Z,90.30
2017-09-25T21:00:12.740Z,90.20
2017-09-25T21:02:40.285Z,90.20
2017-09-25T21:05:08.578Z,90.10
2017-09-25T21:07:36.101Z,90.10
2017-09-25T21:10:04.374Z,90.00
2017-09-25T21:12:32.013Z,90.00
2017-09-25T21:14:59.519Z,90.00
2017-09-25T21:17:27.014Z,90.00
2017-09-25T21:19:54.554Z,90.20
2017-09-25T21:22:22.053Z,89.50
2017-09-25T21:24:49.597Z,89.40
2017-09-25T21:27:19.768Z,89.60
2017-09-25T21:29:47.297Z,89.80
2017-09-25T21:32:14.805Z,89.90
2017-09-25T21:34:43.106Z,90.00
2017-09-25T21:37:10.604Z,90.00
2017-09-25T21:39:38.254Z,90.10
2017-09-25T21:42:06.520Z,90.20
2017-09-25T21:44:34.957Z,90.50
2017-09-25T21:47:02.488Z,90.50
2017-09-25T21:49:29.989Z,90.60
2017-09-25T21:51:57.629Z,90.60
2017-09-25T21:54:25.893Z,90.60
2017-09-25T21:56:54.294Z,90.70
2017-09-25T21:59:21.791Z,90.70
2017-09-25T22:01:50.089Z,90.70
2017-09-25T22:04:17.632Z,90.70
2017-09-25T22:06:46.103Z,90.90
2017-09-25T22:09:13.600Z,90.80
2017-09-25T22:11:41.876Z,91.10
2017-09-25T22:14:09.422Z,91.00
2017-09-25T22:16:37.712Z,91.10
2017-09-25T22:19:05.242Z,91.40
2017-09-25T22:21:32.752Z,91.20
2017-09-25T22:24:01.057Z,91.70
2017-09-25T22:26:28.557Z,91.30
2017-09-25T22:28:56.108Z,91.20
2017-09-25T22:31:23.611Z,91.30
2017-09-25T22:33:51.545Z,91.20
2017-09-25T22:36:19.037Z,91.20
2017-09-25T22:38:46.546Z,91.10
2017-09-25T22:41:14.157Z,91.00
2017-09-25T22:43:56.551Z,90.80
2017-09-25T22:46:24.096Z,90.60
2017-09-25T22:48:51.598Z,90.30
2017-09-25T22:51:19.132Z,90.00
2017-09-25T22:53:46.622Z,90.00
2017-09-25T22:56:14.145Z,90.00
2017-09-25T22:58:42.405Z,90.20
2017-09-25T23:01:09.957Z,90.00
2017-09-25T23:03:38.249Z,90.20
2017-09-25T23:06:05.781Z,90.10
2017-09-25T23:08:33.274Z,90.10
2017-09-25T23:11:04.543Z,90.10
2017-09-25T23:13:32.805Z,90.10
2017-09-25T23:16:01.065Z,90.20
2017-09-25T23:18:29.406Z,90.30
2017-09-25T23:20:56.896Z,90.20
2017-09-25T23:23:24.434Z,90.20
2017-09-25T23:25:51.932Z,90.40
2017-09-25T23:28:19.461Z,90.40
2017-09-25T23:30:53.561Z,90.50
2017-09-25T23:33:21.099Z,90.60
2017-09-25T23:35:48.588Z,90.60
2017-09-25T23:38:17.161Z,90.70
2017-09-25T23:40:45.475Z,90.80
2017-09-25T23:43:12.966Z,90.80
2017-09-25T23:45:41.256Z,90.80
2017-09-25T23:48:08.744Z,90.80
2017-09-25T23:50:36.277Z,90.80
2017-09-25T23:53:04.102Z,90.80
2017-09-25T23:55:31.644Z,90.80
2017-09-25T23:57:59.137Z,90.70
